Manzanillo, Cuba
Current Conditions -  °F | °C
As of 3:50 AM on Sunday 21 Dec 2014 (Local Time) from MUHG Reporting Station
Clear Clear  
Wind Chill: 66°   Ceiling: Unl
Heat Index: 66°   Visibility: 5mi
Dew Point: 64°   Wind: 3mph
Humidity: 94%   Direction: 30°NNE
Pressure: 30"   Gusts: NA
Location:  20.35°N, 77.12°W
Report Text: MUHG 210750Z 03003KT 8000 SKC 19/18 Q1016
Loading
Personal Weather Stations






























Interactive Weather Map New forecast layout! Learn more

10-Day Weather Forecast

Advertisements
Track Severe Weather on mobile